Time;durP1;ratioP1;P1;durP2;ratioP2;P2;SDS_P1;SDS_P2;PMS_P1;PMS_P2;Temp;Humidity;BMP_temperature;BMP_pressure;BME280_temperature;BME280_humidity;BME280_pressure;Samples;Min_cycle;Max_cycle;Signal;HPM_P1;HPM_P2
2023/03/21 00:01:04;;;;;;;22.73;11.93;;;;;;;9.32;100.00;-18279.00;5010828;28;20046;-83
2023/03/21 00:03:33;;;;;;;24.10;14.30;;;;;;;9.32;100.00;-18278.88;5015103;28;20120;-83
2023/03/21 00:06:04;;;;;;;28.13;14.43;;;;;;;9.31;100.00;-18278.59;5012155;28;20042;-83
2023/03/21 00:08:29;;;;;;;30.23;12.93;;;;;;;9.29;100.00;-18278.19;5001708;28;20046;-85
2023/03/21 00:11:00;;;;;;;24.25;13.20;;;;;;;9.29;100.00;-18278.19;5006674;28;20042;-85
2023/03/21 00:13:27;;;;;;;28.02;13.30;;;;;;;9.36;100.00;-18280.13;5022498;28;20077;-83
2023/03/21 00:15:53;;;;;;;27.75;13.75;;;;;;;9.31;100.00;-18278.75;5013728;28;20037;-84
2023/03/21 00:18:21;;;;;;;26.73;15.27;;;;;;;9.31;100.00;-18278.75;5004654;28;20140;-83
2023/03/21 00:21:01;;;;;;;23.50;12.73;;;;;;;9.29;100.00;-18278.19;5001278;28;20061;-84
2023/03/21 00:23:28;;;;;;;26.23;14.25;;;;;;;9.29;100.00;-18278.06;5008430;28;20053;-84
2023/03/21 00:25:54;;;;;;;27.95;12.07;;;;;;;9.27;100.00;-18277.78;5015576;28;20601;-83
2023/03/21 00:28:19;;;;;;;20.40;12.02;;;;;;;9.32;100.00;-18279.00;5002760;28;20046;-83
2023/03/21 00:30:45;;;;;;;27.67;14.57;;;;;;;9.30;100.00;-18278.47;5003537;28;20050;-83
2023/03/21 00:33:12;;;;;;;29.70;14.23;;;;;;;9.29;100.00;-18278.06;5010637;28;20100;-84
2023/03/21 00:35:38;;;;;;;24.17;13.25;;;;;;;9.32;100.00;-18278.88;5008160;28;20050;-83
2023/03/21 00:38:03;;;;;;;22.38;13.63;;;;;;;9.32;100.00;-18279.00;5019203;28;20093;-86
2023/03/21 00:40:31;;;;;;;26.15;14.18;;;;;;;9.31;100.00;-18278.59;5012156;28;20056;-85
2023/03/21 00:42:57;;;;;;;27.23;12.98;;;;;;;9.30;100.00;-18278.47;5009780;28;20046;-85
2023/03/21 00:45:22;;;;;;;28.30;13.93;;;;;;;9.33;100.00;-18279.16;5002440;28;20049;-83
2023/03/21 00:47:47;;;;;;;22.48;12.93;;;;;;;9.33;100.00;-18279.16;5009593;28;20058;-83
2023/03/21 00:50:13;;;;;;;31.17;13.88;;;;;;;9.33;100.00;-18279.16;5014701;28;20045;-85
2023/03/21 00:52:38;;;;;;;24.23;13.10;;;;;;;9.34;100.00;-18279.56;5015210;28;20041;-83
2023/03/21 00:55:05;;;;;;;27.00;14.90;;;;;;;9.35;100.00;-18279.69;5009948;28;20125;-83
2023/03/21 00:57:30;;;;;;;26.38;15.07;;;;;;;9.34;100.00;-18279.44;5002783;28;20046;-85
2023/03/21 00:59:57;;;;;;;25.75;13.95;;;;;;;9.36;100.00;-18279.97;5012127;28;20121;-83
2023/03/21 01:02:25;;;;;;;29.95;14.55;;;;;;;9.38;100.00;-18280.53;5003597;28;20148;-83
2023/03/21 01:04:51;;;;;;;29.38;14.68;;;;;;;9.37;100.00;-18280.38;4997462;28;20642;-85
2023/03/21 01:07:17;;;;;;;28.48;13.77;;;;;;;9.39;100.00;-18280.81;5020506;28;20076;-83
2023/03/21 01:09:42;;;;;;;26.55;14.10;;;;;;;9.38;100.00;-18280.53;5010545;28;20553;-84
2023/03/21 01:12:07;;;;;;;28.05;14.55;;;;;;;9.40;100.00;-18281.06;5004539;28;20052;-83
2023/03/21 01:14:33;;;;;;;31.02;15.95;;;;;;;9.38;100.00;-18280.53;5006357;28;20711;-83
2023/03/21 01:16:58;;;;;;;21.50;12.00;;;;;;;9.39;100.00;-18280.94;5001356;28;20532;-83
2023/03/21 01:19:28;;;;;;;26.42;14.95;;;;;;;9.40;100.00;-18281.06;4999333;28;20131;-83
2023/03/21 01:21:54;;;;;;;28.42;14.43;;;;;;;9.38;100.00;-18280.53;5008396;28;20046;-84
2023/03/21 01:24:20;;;;;;;26.98;13.38;;;;;;;9.39;100.00;-18280.81;5019741;28;20112;-82
2023/03/21 01:26:45;;;;;;;27.10;13.82;;;;;;;9.38;100.00;-18280.53;5009553;28;20493;-83
2023/03/21 01:29:11;;;;;;;23.88;13.57;;;;;;;9.39;100.00;-18280.81;5006091;28;20037;-86
2023/03/21 01:31:36;;;;;;;27.70;13.55;;;;;;;9.39;100.00;-18280.81;5005701;28;20092;-83
2023/03/21 01:34:02;;;;;;;26.02;14.57;;;;;;;9.39;100.00;-18280.94;5009616;28;20038;-83
2023/03/21 01:36:27;;;;;;;26.98;14.70;;;;;;;9.39;100.00;-18280.94;4998790;28;20129;-85
2023/03/21 01:38:52;;;;;;;22.70;13.40;;;;;;;9.37;100.00;-18280.25;5000315;28;20965;-84
2023/03/21 01:41:34;;;;;;;27.92;15.27;;;;;;;9.37;100.00;-18280.25;5014285;28;20476;-84
2023/03/21 01:43:59;;;;;;;25.50;13.52;;;;;;;9.36;100.00;-18280.13;4999440;28;20051;-85
2023/03/21 01:46:43;;;;;;;31.23;15.82;;;;;;;9.33;100.00;-18279.16;5007161;28;20065;-82
2023/03/21 01:49:33;;;;;;;24.95;14.35;;;;;;;9.28;100.00;-18277.91;5013220;28;20074;-83
2023/03/21 01:52:06;;;;;;;30.65;18.90;;;;;;;9.26;100.00;-18277.50;5006831;28;20045;-85
2023/03/21 01:54:36;;;;;;;29.27;18.83;;;;;;;9.25;100.00;-18277.09;5011667;28;20053;-83
2023/03/21 01:57:07;;;;;;;29.17;17.85;;;;;;;9.23;100.00;-18276.66;4998327;28;20101;-82
2023/03/21 01:59:44;;;;;;;31.23;15.98;;;;;;;9.23;100.00;-18276.53;4997926;28;20077;-83
2023/03/21 02:02:19;;;;;;;30.92;19.08;;;;;;;9.21;100.00;-18276.00;5004352;28;20057;-82
2023/03/21 02:04:49;;;;;;;32.15;18.75;;;;;;;9.20;100.00;-18275.72;5007398;28;20041;-82
2023/03/21 02:07:18;;;;;;;35.65;19.83;;;;;;;9.16;100.00;-18274.75;5004610;28;20069;-85
2023/03/21 02:09:49;;;;;;;31.57;19.40;;;;;;;9.13;100.00;-18273.94;5005952;28;20394;-83
2023/03/21 02:12:15;;;;;;;31.80;21.08;;;;;;;9.11;100.00;-18273.38;5017926;28;20061;-82
2023/03/21 02:14:41;;;;;;;46.50;21.73;;;;;;;9.10;100.00;-18272.97;5006584;28;20489;-83
2023/03/21 02:17:14;;;;;;;38.33;20.85;;;;;;;9.12;100.00;-18273.50;5021983;28;20100;-87
2023/03/21 02:20:07;;;;;;;37.88;19.63;;;;;;;9.06;100.00;-18271.84;5009341;28;20065;-84
2023/03/21 02:22:57;;;;;;;39.95;23.85;;;;;;;8.99;100.00;-18270.06;5011328;28;20050;-83
2023/03/21 02:25:48;;;;;;;41.38;23.90;;;;;;;9.00;100.00;-18270.34;5018726;28;20072;-86
2023/03/21 02:28:28;;;;;;;38.13;21.23;;;;;;;8.95;100.00;-18269.09;5009322;28;20129;-85
2023/03/21 02:31:21;;;;;;;41.42;22.23;;;;;;;9.12;100.00;-18273.50;5009819;28;20449;-84
2023/03/21 02:34:01;;;;;;;43.42;20.35;;;;;;;9.10;100.00;-18273.09;5007135;28;20168;-83
2023/03/21 02:36:45;;;;;;;44.08;24.58;;;;;;;9.01;100.00;-18270.63;5004880;28;20043;-83
2023/03/21 02:39:23;;;;;;;42.25;24.48;;;;;;;9.03;100.00;-18271.31;5021829;28;20052;-83
2023/03/21 02:41:58;;;;;;;42.45;21.38;;;;;;;9.00;100.00;-18270.47;5021869;28;20050;-83
2023/03/21 02:44:34;;;;;;;39.88;24.63;;;;;;;9.01;100.00;-18270.75;5003304;28;20041;-86
2023/03/21 02:47:32;;;;;;;40.45;24.88;;;;;;;9.01;100.00;-18270.63;5003549;28;20045;-83
2023/03/21 02:50:11;;;;;;;46.50;23.90;;;;;;;9.02;100.00;-18270.91;5001577;28;20129;-84
2023/03/21 02:52:38;;;;;;;39.13;24.65;;;;;;;9.00;100.00;-18270.47;5005678;28;20045;-83
2023/03/21 02:55:12;;;;;;;46.20;26.23;;;;;;;9.01;100.00;-18270.75;5016833;28;20041;-84
2023/03/21 02:57:39;;;;;;;42.28;22.27;;;;;;;9.02;100.00;-18271.03;5014624;28;20061;-83
2023/03/21 03:00:11;;;;;;;38.95;23.05;;;;;;;9.03;100.00;-18271.16;5014353;28;20493;-86
2023/03/21 03:02:36;;;;;;;38.05;21.17;;;;;;;9.04;100.00;-18271.59;5011925;28;20056;-84
2023/03/21 03:05:30;;;;;;;37.58;21.83;;;;;;;9.04;100.00;-18271.59;5008460;28;20429;-84
2023/03/21 03:08:10;;;;;;;38.53;21.30;;;;;;;9.04;100.00;-18271.44;5006458;28;20042;-84
2023/03/21 03:10:46;;;;;;;37.45;22.80;;;;;;;9.04;100.00;-18271.59;5026282;28;20409;-84
2023/03/21 03:13:34;;;;;;;36.88;23.70;;;;;;;9.03;100.00;-18271.16;4999653;28;20169;-84
2023/03/21 03:16:24;;;;;;;33.57;20.27;;;;;;;9.01;100.00;-18270.75;5002931;28;20073;-84
2023/03/21 03:19:00;;;;;;;34.17;20.38;;;;;;;9.01;100.00;-18270.63;5006496;28;20048;-84
2023/03/21 03:21:28;;;;;;;36.58;19.38;;;;;;;9.01;100.00;-18270.63;5021639;28;20526;-84
2023/03/21 03:24:10;;;;;;;32.28;16.67;;;;;;;9.02;100.00;-18271.03;5005701;28;20062;-83
2023/03/21 03:26:46;;;;;;;38.20;19.25;;;;;;;9.04;100.00;-18271.44;5007946;28;20054;-84
2023/03/21 03:29:16;;;;;;;32.42;19.40;;;;;;;9.12;100.00;-18273.50;5001465;28;20168;-83
2023/03/21 03:32:07;;;;;;;30.98;18.40;;;;;;;9.17;100.00;-18274.88;5002907;28;20141;-83
2023/03/21 03:34:40;;;;;;;34.25;18.17;;;;;;;9.12;100.00;-18273.66;4998117;28;20412;-84
2023/03/21 03:37:14;;;;;;;36.03;19.13;;;;;;;9.11;100.00;-18273.38;5002143;28;20050;-83
2023/03/21 03:39:46;;;;;;;33.20;18.33;;;;;;;9.12;100.00;-18273.50;5003971;28;20042;-83
2023/03/21 03:42:18;;;;;;;34.95;19.08;;;;;;;9.08;100.00;-18272.53;5002499;28;20493;-84
2023/03/21 03:44:44;;;;;;;37.75;19.83;;;;;;;9.10;100.00;-18272.97;5006652;28;20046;-83
2023/03/21 03:47:36;;;;;;;35.58;19.73;;;;;;;9.13;100.00;-18273.94;5003855;28;20391;-84
2023/03/21 03:50:11;;;;;;;34.67;19.63;;;;;;;9.12;100.00;-18273.66;4995781;28;20121;-83
2023/03/21 03:52:42;;;;;;;36.58;19.92;;;;;;;9.15;100.00;-18274.47;5004833;28;20048;-84
2023/03/21 03:55:12;;;;;;;38.28;18.95;;;;;;;9.18;100.00;-18275.31;5005303;28;20061;-84
2023/03/21 03:57:38;;;;;;;37.33;20.85;;;;;;;9.21;100.00;-18276.00;5006336;28;20041;-83
2023/03/21 04:00:10;;;;;;;29.33;19.42;;;;;;;9.22;100.00;-18276.41;5011587;28;20052;-84
2023/03/21 04:02:36;;;;;;;29.33;17.00;;;;;;;9.27;100.00;-18277.78;5000239;28;20406;-84
2023/03/21 04:05:03;;;;;;;27.55;16.23;;;;;;;9.26;100.00;-18277.50;5003112;28;20091;-84
2023/03/21 04:07:28;;;;;;;35.03;17.45;;;;;;;9.23;100.00;-18276.66;5005553;28;20041;-84
2023/03/21 04:09:54;;;;;;;28.48;18.30;;;;;;;9.26;100.00;-18277.50;5003506;28;20046;-83
2023/03/21 04:12:19;;;;;;;28.00;14.43;;;;;;;9.23;100.00;-18276.66;5000185;28;20417;-83
2023/03/21 04:14:45;;;;;;;32.47;17.23;;;;;;;9.22;100.00;-18276.41;5004514;28;20050;-84
2023/03/21 04:17:10;;;;;;;33.53;16.67;;;;;;;9.21;100.00;-18276.13;5001231;28;20077;-83
2023/03/21 04:19:35;;;;;;;29.67;15.63;;;;;;;9.19;100.00;-18275.44;5007219;28;20038;-83
2023/03/21 04:22:01;;;;;;;27.27;15.77;;;;;;;9.19;100.00;-18275.56;5014462;28;20073;-83
2023/03/21 04:24:26;;;;;;;30.63;14.68;;;;;;;9.21;100.00;-18276.00;5002655;28;20046;-84
2023/03/21 04:26:52;;;;;;;30.80;16.95;;;;;;;9.20;100.00;-18275.72;5006014;28;20092;-84
2023/03/21 04:29:19;;;;;;;31.40;16.60;;;;;;;9.24;100.00;-18276.81;5002584;28;20065;-84
2023/03/21 04:31:44;;;;;;;28.63;16.00;;;;;;;9.21;100.00;-18276.13;5000612;28;20690;-84
2023/03/21 04:34:11;;;;;;;31.38;15.98;;;;;;;9.22;100.00;-18276.25;5008283;28;20042;-83
2023/03/21 04:36:46;;;;;;;29.23;15.20;;;;;;;9.21;100.00;-18276.13;5002892;28;20049;-83
2023/03/21 04:39:12;;;;;;;27.20;12.93;;;;;;;9.20;100.00;-18275.84;5003841;28;20042;-83
2023/03/21 04:41:39;;;;;;;23.83;13.93;;;;;;;9.22;100.00;-18276.25;5013065;28;20062;-84
2023/03/21 04:44:05;;;;;;;27.70;14.30;;;;;;;9.22;100.00;-18276.25;5006168;28;20046;-84
2023/03/21 04:46:30;;;;;;;27.10;11.93;;;;;;;9.21;100.00;-18276.13;5002468;28;20073;-83
2023/03/21 04:48:56;;;;;;;30.63;15.43;;;;;;;9.22;100.00;-18276.41;5010943;28;20045;-83
2023/03/21 04:51:21;;;;;;;27.48;14.55;;;;;;;9.26;100.00;-18277.34;5002828;28;20065;-83
2023/03/21 04:53:48;;;;;;;28.00;15.35;;;;;;;9.37;100.00;-18280.25;4996805;28;20042;-84
2023/03/21 04:56:14;;;;;;;32.13;14.20;;;;;;;9.29;100.00;-18278.06;5004210;28;20055;-84
2023/03/21 04:58:41;;;;;;;28.13;13.63;;;;;;;9.28;100.00;-18277.91;5001673;28;20128;-83
2023/03/21 05:01:07;;;;;;;26.17;14.48;;;;;;;9.26;100.00;-18277.50;4998083;28;20042;-84
2023/03/21 05:03:39;;;;;;;26.83;15.00;;;;;;;9.31;100.00;-18278.75;5003334;28;20038;-84
2023/03/21 05:06:07;;;;;;;29.17;15.18;;;;;;;9.30;100.00;-18278.31;4999543;28;20639;-82
2023/03/21 05:08:34;;;;;;;25.67;13.30;;;;;;;9.23;100.00;-18276.66;5007734;28;20046;-84
2023/03/21 05:11:00;;;;;;;29.80;14.65;;;;;;;9.21;100.00;-18276.13;5004462;28;20045;-83
2023/03/21 05:13:26;;;;;;;26.38;14.23;;;;;;;9.23;100.00;-18276.66;5005868;28;20042;-83
2023/03/21 05:15:51;;;;;;;25.17;14.10;;;;;;;9.17;100.00;-18275.03;5003335;28;20042;-83
2023/03/21 05:18:23;;;;;;;28.95;15.40;;;;;;;9.25;100.00;-18277.09;5004421;28;20112;-83
2023/03/21 05:20:52;;;;;;;24.92;15.65;;;;;;;9.15;100.00;-18274.47;5001693;28;20127;-83
2023/03/21 05:23:18;;;;;;;29.08;14.35;;;;;;;9.12;100.00;-18273.50;5004184;28;20517;-84
2023/03/21 05:25:44;;;;;;;25.33;13.93;;;;;;;9.08;100.00;-18272.53;5003832;28;20055;-83
2023/03/21 05:28:09;;;;;;;27.88;15.65;;;;;;;9.12;100.00;-18273.66;4999416;28;20053;-83
2023/03/21 05:30:35;;;;;;;26.75;14.38;;;;;;;9.11;100.00;-18273.38;5000995;28;20050;-83
2023/03/21 05:33:00;;;;;;;28.98;16.90;;;;;;;9.11;100.00;-18273.38;5002135;28;20127;-83
2023/03/21 05:35:25;;;;;;;27.42;12.93;;;;;;;9.08;100.00;-18272.53;5002950;28;20042;-83
2023/03/21 05:37:52;;;;;;;29.42;16.55;;;;;;;9.09;100.00;-18272.81;5008953;28;20037;-83
2023/03/21 05:40:18;;;;;;;26.70;15.38;;;;;;;9.07;100.00;-18272.13;5003847;28;20116;-83
2023/03/21 05:42:44;;;;;;;31.40;13.82;;;;;;;9.00;100.00;-18270.47;5009169;28;20605;-83
2023/03/21 05:45:10;;;;;;;34.20;16.63;;;;;;;9.02;100.00;-18270.91;5004729;28;20038;-84
2023/03/21 05:47:35;;;;;;;27.33;16.45;;;;;;;8.96;100.00;-18269.25;5007173;28;20045;-84
2023/03/21 05:50:01;;;;;;;31.55;15.00;;;;;;;8.93;100.00;-18268.41;5008770;28;20073;-84
2023/03/21 05:52:28;;;;;;;33.58;15.85;;;;;;;8.90;100.00;-18267.72;5002050;28;20061;-85
2023/03/21 05:54:54;;;;;;;33.67;17.30;;;;;;;8.93;100.00;-18268.56;5001239;28;20061;-84
2023/03/21 05:57:19;;;;;;;32.63;16.35;;;;;;;8.94;100.00;-18268.69;5005591;28;20577;-84
2023/03/21 05:59:45;;;;;;;32.88;16.63;;;;;;;8.92;100.00;-18268.28;4997362;28;20137;-85
2023/03/21 06:02:11;;;;;;;35.33;19.20;;;;;;;9.01;100.00;-18270.75;4998867;28;20049;-85
2023/03/21 06:04:36;;;;;;;36.35;19.42;;;;;;;8.96;100.00;-18269.25;5010747;28;20052;-85
2023/03/21 06:07:02;;;;;;;42.67;20.33;;;;;;;8.89;100.00;-18267.47;5005588;28;20041;-85
2023/03/21 06:09:28;;;;;;;32.90;18.92;;;;;;;8.91;100.00;-18268.00;5005750;28;20121;-84
2023/03/21 06:11:55;;;;;;;36.42;20.23;;;;;;;8.96;100.00;-18269.25;5003532;28;20042;-84
2023/03/21 06:14:21;;;;;;;32.72;17.05;;;;;;;8.93;100.00;-18268.56;5008126;28;20046;-84
2023/03/21 06:16:47;;;;;;;35.90;17.52;;;;;;;8.91;100.00;-18268.00;5006880;28;20038;-84
2023/03/21 06:19:12;;;;;;;34.90;17.60;;;;;;;8.89;100.00;-18267.31;5008033;28;20044;-84
2023/03/21 06:21:38;;;;;;;32.88;20.80;;;;;;;8.82;100.00;-18265.66;5006597;28;20105;-84
2023/03/21 06:24:04;;;;;;;35.83;18.20;;;;;;;8.81;100.00;-18265.25;5009032;28;20061;-84
2023/03/21 06:26:29;;;;;;;32.63;20.05;;;;;;;8.88;100.00;-18267.03;5001922;28;20125;-84
2023/03/21 06:28:56;;;;;;;31.13;17.67;;;;;;;8.87;100.00;-18266.78;5005399;28;20038;-84
2023/03/21 06:31:21;;;;;;;33.50;19.27;;;;;;;8.81;100.00;-18265.25;5001939;28;20053;-84
2023/03/21 06:33:48;;;;;;;32.92;17.88;;;;;;;8.78;100.00;-18264.56;5000091;28;20037;-84
2023/03/21 06:36:13;;;;;;;36.53;19.17;;;;;;;8.76;100.00;-18264.00;5009109;28;20058;-84
2023/03/21 06:38:38;;;;;;;40.67;20.83;;;;;;;8.76;100.00;-18264.00;5004252;28;20120;-84
2023/03/21 06:41:06;;;;;;;33.38;19.40;;;;;;;8.78;100.00;-18264.56;5001750;28;20120;-83
2023/03/21 06:43:32;;;;;;;38.28;18.25;;;;;;;8.84;100.00;-18265.94;5007599;28;20046;-84
2023/03/21 06:45:57;;;;;;;29.95;15.77;;;;;;;8.83;100.00;-18265.81;5010676;28;20092;-84
2023/03/21 06:48:23;;;;;;;35.22;18.27;;;;;;;8.85;100.00;-18266.34;5006376;28;20052;-84
2023/03/21 06:50:49;;;;;;;28.95;16.85;;;;;;;8.84;100.00;-18265.94;5007998;28;20493;-84
2023/03/21 06:53:15;;;;;;;34.33;17.20;;;;;;;8.85;100.00;-18266.22;5007203;28;20120;-84
2023/03/21 06:55:40;;;;;;;31.80;17.20;;;;;;;8.76;100.00;-18264.00;5008817;28;20102;-84
2023/03/21 06:58:06;;;;;;;33.10;18.83;;;;;;;8.78;100.00;-18264.56;5007632;28;20565;-83
2023/03/21 07:00:31;;;;;;;34.28;19.02;;;;;;;8.80;100.00;-18264.97;5009517;28;20096;-85
2023/03/21 07:02:57;;;;;;;29.80;16.90;;;;;;;8.81;100.00;-18265.25;5007471;28;20064;-84
2023/03/21 07:05:23;;;;;;;38.92;19.85;;;;;;;8.78;100.00;-18264.56;5004819;28;20046;-84
2023/03/21 07:07:48;;;;;;;38.78;21.38;;;;;;;8.78;100.00;-18264.44;5011468;28;20052;-83
2023/03/21 07:10:14;;;;;;;39.50;18.75;;;;;;;8.75;100.00;-18263.75;5013391;28;20041;-84
2023/03/21 07:12:39;;;;;;;38.67;20.55;;;;;;;8.76;100.00;-18264.00;5017213;28;20458;-85
2023/03/21 07:15:07;;;;;;;33.75;19.27;;;;;;;8.80;100.00;-18265.13;5007170;28;20103;-84
2023/03/21 07:17:32;;;;;;;40.67;19.30;;;;;;;8.78;100.00;-18264.44;5017842;28;20038;-87
2023/03/21 07:19:58;;;;;;;31.65;17.10;;;;;;;8.76;100.00;-18264.00;5008914;28;20052;-84
2023/03/21 07:22:23;;;;;;;37.28;19.85;;;;;;;8.79;100.00;-18264.84;5008288;28;20121;-85
2023/03/21 07:24:49;;;;;;;32.20;17.23;;;;;;;8.77;100.00;-18264.28;5012003;28;20049;-84
2023/03/21 07:27:15;;;;;;;38.88;18.27;;;;;;;8.81;100.00;-18265.41;5011508;28;20049;-83
2023/03/21 07:29:41;;;;;;;35.47;18.77;;;;;;;8.86;100.00;-18266.63;5011775;28;20454;-85
2023/03/21 07:32:06;;;;;;;36.78;17.58;;;;;;;8.87;100.00;-18266.78;5006284;28;20042;-83
2023/03/21 07:34:32;;;;;;;36.60;17.30;;;;;;;8.88;100.00;-18267.03;5021176;28;20033;-84
2023/03/21 07:36:59;;;;;;;27.20;15.23;;;;;;;8.92;100.00;-18268.16;5017839;28;20042;-84
2023/03/21 07:39:25;;;;;;;29.52;15.68;;;;;;;8.92;100.00;-18268.28;5004281;28;20042;-83
2023/03/21 07:41:51;;;;;;;32.78;16.83;;;;;;;8.98;100.00;-18269.94;5009083;28;20069;-85
2023/03/21 07:44:17;;;;;;;29.10;15.98;;;;;;;8.99;100.00;-18270.06;5011187;28;20057;-85
2023/03/21 07:46:42;;;;;;;31.27;16.42;;;;;;;9.00;100.00;-18270.47;5004969;28;20038;-86
2023/03/21 07:49:07;;;;;;;32.33;17.48;;;;;;;9.04;100.00;-18271.44;5002579;28;20046;-84
2023/03/21 07:51:34;;;;;;;31.42;16.80;;;;;;;9.09;100.00;-18272.81;5008680;28;20041;-83
2023/03/21 07:54:00;;;;;;;29.00;15.00;;;;;;;9.07;100.00;-18272.28;5004174;28;20038;-86
2023/03/21 07:56:26;;;;;;;30.00;15.38;;;;;;;9.08;100.00;-18272.53;5007332;28;20489;-83
2023/03/21 07:58:52;;;;;;;29.42;14.85;;;;;;;9.10;100.00;-18273.09;5009708;28;20046;-86
2023/03/21 08:01:20;;;;;;;30.70;15.50;;;;;;;9.12;100.00;-18273.50;5008017;28;20188;-83
2023/03/21 08:03:46;;;;;;;29.90;14.13;;;;;;;9.12;100.00;-18273.66;5012607;28;20056;-84
2023/03/21 08:06:12;;;;;;;32.15;16.17;;;;;;;9.15;100.00;-18274.47;5014620;28;20042;-85
2023/03/21 08:08:38;;;;;;;32.22;15.65;;;;;;;9.22;100.00;-18276.25;5005577;28;20071;-84
2023/03/21 08:11:04;;;;;;;32.28;15.55;;;;;;;9.31;100.00;-18278.59;5014417;28;20099;-84
2023/03/21 08:13:30;;;;;;;27.75;12.70;;;;;;;9.27;100.00;-18277.78;5015180;28;20374;-84
2023/03/21 08:15:55;;;;;;;26.45;13.98;;;;;;;9.30;100.00;-18278.31;5005596;28;20069;-84
2023/03/21 08:18:21;;;;;;;25.30;13.48;;;;;;;9.36;100.00;-18280.13;5010138;28;20053;-84
2023/03/21 08:20:54;;;;;;;28.33;13.25;;;;;;;9.38;100.00;-18280.53;5008806;28;20069;-83
2023/03/21 08:23:20;;;;;;;24.42;13.95;;;;;;;9.42;100.00;-18281.63;5005865;28;20058;-83
2023/03/21 08:25:45;;;;;;;26.48;13.07;;;;;;;9.46;100.00;-18282.72;5006863;28;20453;-83
2023/03/21 08:28:11;;;;;;;24.38;12.18;;;;;;;9.51;100.00;-18284.09;5008659;28;20037;-85
2023/03/21 08:30:36;;;;;;;21.25;11.73;;;;;;;9.57;100.00;-18285.75;5008849;28;20072;-83
2023/03/21 08:33:03;;;;;;;24.98;11.85;;;;;;;9.56;100.00;-18285.47;5003775;28;20046;-83
2023/03/21 08:35:30;;;;;;;21.42;12.80;;;;;;;9.60;100.00;-18286.56;5000282;28;20046;-83
2023/03/21 08:37:56;;;;;;;27.38;11.65;;;;;;;9.61;100.00;-18286.84;5011908;28;20526;-84
2023/03/21 08:40:21;;;;;;;25.02;11.82;;;;;;;9.70;100.00;-18289.19;5005544;28;20149;-86
2023/03/21 08:42:46;;;;;;;21.90;11.10;;;;;;;9.74;100.00;-18290.16;5013268;28;20148;-84
2023/03/21 08:45:13;;;;;;;18.77;10.57;;;;;;;9.76;100.00;-18290.84;5020015;28;20437;-83
2023/03/21 08:47:39;;;;;;;17.83;9.82;;;;;;;9.80;100.00;-18291.81;5029465;28;20088;-84
2023/03/21 08:50:08;;;;;;;24.52;10.48;;;;;;;9.84;100.00;-18293.03;5011854;28;20473;-84
2023/03/21 08:52:33;;;;;;;;;;;;;;;9.89;100.00;-18294.28;5013626;28;20075;-84
2023/03/21 08:55:00;;;;;;;23.70;10.63;;;;;;;9.85;100.00;-18293.19;5024720;28;19991;-83
2023/03/21 08:57:26;;;;;;;24.55;10.55;;;;;;;9.92;100.00;-18295.09;5018702;28;20066;-83
2023/03/21 08:59:52;;;;;;;20.75;10.43;;;;;;;10.01;100.00;-18297.44;5011763;28;20115;-84
2023/03/21 09:02:17;;;;;;;21.10;10.10;;;;;;;10.05;100.00;-18298.69;5001403;28;20044;-84
2023/03/21 09:04:43;;;;;;;17.98;9.60;;;;;;;10.11;100.00;-18300.19;5010733;28;20096;-84
2023/03/21 09:07:11;;;;;;;18.42;9.93;;;;;;;10.12;100.00;-18300.59;5016466;28;20038;-83
2023/03/21 09:09:37;;;;;;;22.42;9.25;;;;;;;10.13;100.00;-18300.75;5003601;28;20055;-83
2023/03/21 09:12:03;;;;;;;19.42;10.35;;;;;;;10.17;100.00;-18301.97;5015695;28;20038;-84
2023/03/21 09:14:28;;;;;;;13.70;9.07;;;;;;;10.23;100.00;-18303.34;5008017;28;20279;-84
2023/03/21 09:16:54;;;;;;;16.60;7.80;;;;;;;10.27;100.00;-18304.59;5026372;28;20074;-84
2023/03/21 09:19:19;;;;;;;19.77;9.30;;;;;;;10.25;100.00;-18303.91;4999863;28;20073;-84
2023/03/21 09:21:45;;;;;;;18.88;8.65;;;;;;;10.25;100.00;-18303.91;5009598;28;20041;-84
2023/03/21 09:24:11;;;;;;;14.30;8.15;;;;;;;10.27;100.00;-18304.44;5005126;28;20521;-84
2023/03/21 09:26:37;;;;;;;20.83;9.38;;;;;;;10.32;100.00;-18305.81;5004599;28;20243;-84
2023/03/21 09:29:04;;;;;;;13.07;6.95;;;;;;;10.16;100.00;-18301.69;5011729;28;20025;-84
2023/03/21 09:31:30;;;;;;;18.90;8.23;;;;;;;10.13;100.00;-18300.88;5005290;28;20045;-84
2023/03/21 09:33:56;;;;;;;19.23;9.23;;;;;;;10.14;100.00;-18301.00;4996855;28;20045;-85
2023/03/21 09:36:23;;;;;;;20.02;9.23;;;;;;;10.10;100.00;-18300.06;5010827;28;20040;-84
2023/03/21 09:38:49;;;;;;;16.83;8.05;;;;;;;10.03;100.00;-18298.13;5016643;28;20412;-84
2023/03/21 09:41:33;;;;;;;14.15;7.95;;;;;;;10.05;100.00;-18298.69;5001949;28;20042;-85
2023/03/21 09:44:30;;;;;;;16.80;8.23;;;;;;;10.02;100.00;-18297.72;5003335;28;20493;-84
2023/03/21 09:47:23;;;;;;;14.40;8.40;;;;;;;9.96;100.00;-18296.19;4985815;28;20176;-85
2023/03/21 09:50:00;;;;;;;17.45;9.68;;;;;;;10.00;100.00;-18297.16;5011204;28;20037;-85
2023/03/21 09:52:33;;;;;;;16.25;9.07;;;;;;;9.94;100.00;-18295.66;5000369;28;20053;-84
2023/03/21 09:54:58;;;;;;;20.30;9.55;;;;;;;10.00;100.00;-18297.31;5007833;28;20069;-85
2023/03/21 09:57:31;;;;;;;17.20;9.75;;;;;;;10.00;100.00;-18297.31;5006741;28;20133;-84
2023/03/21 10:00:06;;;;;;;20.73;10.65;;;;;;;9.98;100.00;-18296.75;5008264;28;20663;-84
2023/03/21 10:02:44;;;;;;;23.23;11.63;;;;;;;9.96;100.00;-18296.19;5011713;28;20349;-84
2023/03/21 10:05:17;;;;;;;17.42;10.98;;;;;;;9.91;100.00;-18294.81;5000988;28;20045;-84
2023/03/21 10:07:49;;;;;;;17.88;9.75;;;;;;;9.95;100.00;-18295.94;4999401;28;20045;-84
2023/03/21 10:10:23;;;;;;;24.33;10.95;;;;;;;9.99;100.00;-18297.03;5010402;28;20080;-85
2023/03/21 10:12:52;;;;;;;19.58;11.13;;;;;;;10.03;100.00;-18298.00;5000825;28;20123;-85
2023/03/21 10:15:20;;;;;;;19.55;10.45;;;;;;;10.08;100.00;-18299.50;5011411;28;20104;-85
2023/03/21 10:17:53;;;;;;;21.10;11.63;;;;;;;10.08;100.00;-18299.38;5005799;28;20038;-84
2023/03/21 10:20:29;;;;;;;15.40;9.48;;;;;;;10.05;100.00;-18298.53;5013786;28;20495;-84
2023/03/21 10:22:57;;;;;;;24.02;10.82;;;;;;;10.09;100.00;-18299.78;5008884;28;20569;-84
2023/03/21 10:25:31;;;;;;;20.52;9.32;;;;;;;10.14;100.00;-18301.16;4999933;28;20038;-84
2023/03/21 10:27:58;;;;;;;19.52;10.70;;;;;;;10.19;100.00;-18302.25;5004761;28;20061;-84
2023/03/21 10:30:47;;;;;;;20.70;10.98;;;;;;;10.26;100.00;-18304.31;5002407;28;20042;-84
2023/03/21 10:33:23;;;;;;;21.13;10.02;;;;;;;10.27;100.00;-18304.44;4999697;28;20512;-84
2023/03/21 10:35:55;;;;;;;19.48;11.13;;;;;;;10.32;100.00;-18305.97;4996692;28;20046;-84
2023/03/21 10:38:24;;;;;;;21.10;11.25;;;;;;;10.36;100.00;-18306.94;5001833;28;20052;-84
2023/03/21 10:40:50;;;;;;;17.92;10.05;;;;;;;10.48;100.00;-18310.22;4997541;28;20050;-84
2023/03/21 10:43:18;;;;;;;18.83;11.48;;;;;;;10.53;100.00;-18311.47;5006404;28;20056;-84
2023/03/21 10:45:47;;;;;;;17.40;9.55;;;;;;;10.55;100.00;-18312.16;5009114;28;20041;-84
2023/03/21 10:48:13;;;;;;;18.38;9.13;;;;;;;10.48;100.00;-18310.09;4994851;28;20038;-84
2023/03/21 10:50:40;;;;;;;21.85;10.68;;;;;;;10.55;100.00;-18312.16;5019423;28;20086;-84
2023/03/21 10:53:16;;;;;;;22.33;12.07;;;;;;;10.56;100.00;-18312.44;5003215;28;20073;-84
2023/03/21 10:55:43;;;;;;;17.75;10.60;;;;;;;10.58;100.00;-18312.84;5004406;28;20133;-84
2023/03/21 10:58:17;;;;;;;20.60;10.18;;;;;;;10.58;100.00;-18312.84;4998906;28;20042;-84
2023/03/21 11:00:45;;;;;;;18.88;10.77;;;;;;;10.52;100.00;-18311.31;5004057;28;20034;-84
2023/03/21 11:03:23;;;;;;;18.70;13.15;;;;;;;10.58;100.00;-18312.84;5002624;28;20041;-85
2023/03/21 11:05:54;;;;;;;23.90;12.25;;;;;;;10.62;100.00;-18313.94;5005497;28;20056;-84
2023/03/21 11:08:20;;;;;;;20.63;12.25;;;;;;;10.61;100.00;-18313.78;5012931;28;20041;-84
2023/03/21 11:11:00;;;;;;;19.45;10.82;;;;;;;10.53;100.00;-18311.59;4996978;28;20042;-85
2023/03/21 11:13:36;;;;;;;22.13;10.95;;;;;;;10.52;100.00;-18311.31;4999388;28;20089;-84
2023/03/21 11:16:08;;;;;;;15.95;10.45;;;;;;;10.51;100.00;-18311.06;5003069;28;20048;-85
2023/03/21 11:18:40;;;;;;;16.20;10.35;;;;;;;10.52;100.00;-18311.19;5013194;28;20057;-84